Time;durP1;ratioP1;P1;durP2;ratioP2;P2;SDS_P1;SDS_P2;PMS_P1;PMS_P2;Temp;Humidity;BMP_temperature;BMP_pressure;BME280_temperature;BME280_humidity;BME280_pressure;Samples;Min_cycle;Max_cycle;Signal;HPM_P1;HPM_P2
2023/03/25 00:00:59;;;;;;;0.10;0.10;;;10.00;99.90;;;;;;5008221;28;20041;-65
2023/03/25 00:03:27;;;;;;;1.05;0.95;;;10.00;99.90;;;;;;5009012;28;20413;-64
2023/03/25 00:05:54;;;;;;;14.90;2.92;;;10.00;99.90;;;;;;5003718;28;20050;-65
2023/03/25 00:08:20;;;;;;;0.13;0.13;;;10.00;99.90;;;;;;5004736;28;20080;-65
2023/03/25 00:10:53;;;;;;;0.65;0.65;;;10.10;99.90;;;;;;5012839;28;20073;-65
2023/03/25 00:13:20;;;;;;;0.10;0.10;;;10.10;99.90;;;;;;5013155;28;20385;-65
2023/03/25 00:15:47;;;;;;;0.30;0.30;;;10.10;99.90;;;;;;4998735;28;20050;-64
2023/03/25 00:18:16;;;;;;;0.10;0.10;;;10.00;99.90;;;;;;5002358;28;20509;-65
2023/03/25 00:20:44;;;;;;;0.80;0.80;;;10.00;99.90;;;;;;5011443;28;20042;-65
2023/03/25 00:23:11;;;;;;;0.10;0.10;;;10.00;99.90;;;;;;4997958;28;20073;-65
2023/03/25 00:25:36;;;;;;;1.55;0.90;;;10.00;99.90;;;;;;4998212;28;20409;-65
2023/03/25 00:28:02;;;;;;;0.63;0.63;;;9.90;99.90;;;;;;5011665;28;20049;-65
2023/03/25 00:30:27;;;;;;;0.50;0.50;;;9.80;99.90;;;;;;5012101;28;20426;-65
2023/03/25 00:32:53;;;;;;;2.30;0.82;;;9.80;99.90;;;;;;5004934;28;20046;-65
2023/03/25 00:35:20;;;;;;;0.63;0.63;;;9.80;99.90;;;;;;5001788;28;20060;-64
2023/03/25 00:37:46;;;;;;;1.17;1.08;;;9.80;99.90;;;;;;5013787;28;20042;-64
2023/03/25 00:40:13;;;;;;;1.55;0.75;;;9.80;99.90;;;;;;5008891;28;20775;-65
2023/03/25 00:42:48;;;;;;;4.68;2.70;;;9.70;99.90;;;;;;4996882;28;20401;-64
2023/03/25 00:45:17;;;;;;;20.13;1.20;;;9.70;99.90;;;;;;5012689;28;20497;-64
2023/03/25 00:47:42;;;;;;;0.88;0.88;;;9.70;99.90;;;;;;5012712;28;20038;-65
2023/03/25 00:50:09;;;;;;;1.42;1.33;;;9.60;99.90;;;;;;5001388;28;20052;-64
2023/03/25 00:52:34;;;;;;;1.25;0.98;;;9.70;99.90;;;;;;5002026;28;20045;-64
2023/03/25 00:55:01;;;;;;;0.10;0.10;;;9.70;99.90;;;;;;5012051;28;20081;-64
2023/03/25 00:57:27;;;;;;;7.40;2.28;;;9.70;99.90;;;;;;5003873;28;20050;-65
2023/03/25 00:59:53;;;;;;;0.75;0.75;;;9.60;99.90;;;;;;5001910;28;20066;-64
2023/03/25 01:02:20;;;;;;;7.28;2.08;;;9.60;99.90;;;;;;5011211;28;20026;-65
2023/03/25 01:04:48;;;;;;;0.10;0.10;;;9.60;99.90;;;;;;5010935;28;20052;-65
2023/03/25 01:07:14;;;;;;;1.15;1.10;;;9.60;99.90;;;;;;5008127;28;20057;-65
2023/03/25 01:09:41;;;;;;;0.10;0.10;;;9.60;99.90;;;;;;5008105;28;20072;-65
2023/03/25 01:12:07;;;;;;;1.55;1.30;;;9.60;99.90;;;;;;5011851;28;20558;-66
2023/03/25 01:14:33;;;;;;;0.40;0.40;;;9.60;99.90;;;;;;4999046;28;20057;-65
2023/03/25 01:16:59;;;;;;;0.73;0.73;;;9.60;99.90;;;;;;5005210;28;20042;-65
2023/03/25 01:19:25;;;;;;;0.35;0.35;;;9.60;99.90;;;;;;4996193;28;20038;-66
2023/03/25 01:21:51;;;;;;;4.28;2.22;;;9.60;99.90;;;;;;5010990;28;20045;-65
2023/03/25 01:24:17;;;;;;;4.13;2.50;;;9.70;99.90;;;;;;5010887;28;20444;-65
2023/03/25 01:26:44;;;;;;;0.35;0.35;;;9.70;99.90;;;;;;4998377;28;20042;-65
2023/03/25 01:29:11;;;;;;;0.68;0.68;;;9.70;99.90;;;;;;5004802;28;20535;-65
2023/03/25 01:31:37;;;;;;;1.95;1.77;;;9.60;99.90;;;;;;4995037;28;20046;-66
2023/03/25 01:34:03;;;;;;;2.47;1.55;;;9.70;99.90;;;;;;5008066;28;20065;-65
2023/03/25 01:36:29;;;;;;;0.13;0.13;;;9.70;99.90;;;;;;5010743;28;20041;-65
2023/03/25 01:38:57;;;;;;;6.72;2.38;;;9.70;99.90;;;;;;5006240;28;20488;-65
2023/03/25 01:41:23;;;;;;;0.00;0.00;;;9.70;99.90;;;;;;5011946;28;20045;-65
2023/03/25 01:44:09;;;;;;;0.52;0.52;;;9.70;99.90;;;;;;5010852;28;20085;-65
2023/03/25 01:46:37;;;;;;;0.10;0.10;;;9.70;99.90;;;;;;4996049;28;20046;-65
2023/03/25 01:49:06;;;;;;;1.20;1.15;;;9.70;99.90;;;;;;5002530;28;20046;-65
2023/03/25 01:51:39;;;;;;;1.15;1.05;;;9.70;99.90;;;;;;5008937;28;20042;-65
2023/03/25 01:54:05;;;;;;;0.40;0.40;;;9.70;99.90;;;;;;5002465;28;20095;-65
2023/03/25 01:56:35;;;;;;;0.10;0.10;;;9.60;99.90;;;;;;5011179;28;20524;-65
2023/03/25 01:59:04;;;;;;;2.28;0.50;;;9.60;99.90;;;;;;4998401;28;20062;-65
2023/03/25 02:01:31;;;;;;;7.32;4.30;;;9.70;99.90;;;;;;5005506;28;20052;-65
2023/03/25 02:04:21;;;;;;;1.48;1.38;;;9.70;99.90;;;;;;5011639;28;20050;-65
2023/03/25 02:06:50;;;;;;;0.80;0.80;;;9.60;99.90;;;;;;5000250;28;20054;-65
2023/03/25 02:09:18;;;;;;;0.30;0.30;;;9.70;99.90;;;;;;5008033;28;20485;-65
2023/03/25 02:11:44;;;;;;;10.43;1.40;;;9.70;99.90;;;;;;4996318;28;20558;-65
2023/03/25 02:14:14;;;;;;;8.75;2.45;;;9.60;99.90;;;;;;4997773;28;20078;-65
2023/03/25 02:17:01;;;;;;;1.10;0.95;;;9.60;99.90;;;;;;4998499;28;20045;-65
2023/03/25 02:20:04;;;;;;;8.80;4.10;;;9.60;99.90;;;;;;5010994;28;20080;-65
2023/03/25 02:23:07;;;;;;;0.20;0.20;;;9.60;99.90;;;;;;4999449;28;20494;-65
2023/03/25 02:25:48;;;;;;;1.08;0.68;;;9.60;99.90;;;;;;4999093;28;20043;-65
2023/03/25 02:28:35;;;;;;;0.50;0.50;;;9.60;99.90;;;;;;5001842;28;20059;-65
2023/03/25 02:31:24;;;;;;;0.10;0.10;;;9.60;99.90;;;;;;5011184;28;20066;-65
2023/03/25 02:34:22;;;;;;;0.28;0.28;;;9.60;99.90;;;;;;5010666;28;20505;-65
2023/03/25 02:37:08;;;;;;;1.55;1.00;;;9.60;99.90;;;;;;4996899;28;20046;-65
2023/03/25 02:39:46;;;;;;;0.10;0.10;;;9.50;99.90;;;;;;5011089;28;20064;-65
2023/03/25 02:42:22;;;;;;;0.10;0.10;;;9.60;99.90;;;;;;5008343;28;20049;-65
2023/03/25 02:44:59;;;;;;;1.17;1.13;;;9.50;99.90;;;;;;4996362;28;20058;-65
2023/03/25 02:47:32;;;;;;;0.10;0.10;;;9.50;99.90;;;;;;4996868;28;20057;-65
2023/03/25 02:50:09;;;;;;;0.00;0.00;;;9.60;99.90;;;;;;5008349;28;20046;-65
2023/03/25 02:52:43;;;;;;;0.73;0.73;;;9.60;99.90;;;;;;4995967;28;20034;-65
2023/03/25 02:55:13;;;;;;;1.27;1.27;;;9.60;99.90;;;;;;5002256;28;20424;-65
2023/03/25 02:57:42;;;;;;;2.88;1.15;;;9.60;99.90;;;;;;4996819;28;20100;-65
2023/03/25 03:00:14;;;;;;;0.15;0.10;;;9.60;99.90;;;;;;5007830;28;20048;-65
2023/03/25 03:02:43;;;;;;;0.43;0.43;;;9.60;99.90;;;;;;5001980;28;20096;-65
2023/03/25 03:05:30;;;;;;;4.15;2.83;;;9.60;99.90;;;;;;5008758;28;20081;-65
2023/03/25 03:08:20;;;;;;;0.20;0.20;;;9.60;99.90;;;;;;5010020;28;20169;-65
2023/03/25 03:11:00;;;;;;;6.60;1.85;;;9.60;99.90;;;;;;5001493;28;20053;-65
2023/03/25 03:13:37;;;;;;;0.45;0.45;;;9.60;99.90;;;;;;5006447;28;20084;-65
2023/03/25 03:16:25;;;;;;;0.38;0.38;;;9.60;99.90;;;;;;5004957;28;20031;-65
2023/03/25 03:19:10;;;;;;;0.57;0.57;;;9.60;99.90;;;;;;5001104;28;20054;-65
2023/03/25 03:22:00;;;;;;;0.13;0.13;;;9.60;99.90;;;;;;5008774;28;20054;-65
2023/03/25 03:24:29;;;;;;;0.10;0.10;;;9.60;99.90;;;;;;5008595;28;20104;-65
2023/03/25 03:27:22;;;;;;;0.10;0.10;;;9.60;99.90;;;;;;5002710;28;20046;-65
2023/03/25 03:29:53;;;;;;;1.63;1.53;;;9.60;99.90;;;;;;5000098;28;20133;-65
2023/03/25 03:32:34;;;;;;;3.65;0.95;;;9.60;99.90;;;;;;4995695;28;20060;-65
2023/03/25 03:35:32;;;;;;;0.10;0.10;;;9.60;99.90;;;;;;5000234;28;20132;-65
2023/03/25 03:38:08;;;;;;;0.40;0.40;;;9.60;99.90;;;;;;4996530;28;20173;-65
2023/03/25 03:40:37;;;;;;;0.57;0.57;;;9.60;99.90;;;;;;5006154;28;20133;-65
2023/03/25 03:43:08;;;;;;;0.45;0.43;;;9.60;99.90;;;;;;5012849;28;20050;-65
2023/03/25 03:45:47;;;;;;;0.88;0.73;;;9.70;99.90;;;;;;4997475;28;20058;-65
2023/03/25 03:48:22;;;;;;;1.85;1.75;;;9.60;99.90;;;;;;5008078;28;20046;-65
2023/03/25 03:51:17;;;;;;;0.85;0.82;;;9.60;99.90;;;;;;5011178;28;20049;-65
2023/03/25 03:54:06;;;;;;;0.50;0.50;;;9.60;99.90;;;;;;5005431;28;20061;-65
2023/03/25 03:56:45;;;;;;;2.63;1.55;;;9.60;99.90;;;;;;5012229;28;20050;-65
2023/03/25 03:59:19;;;;;;;1.35;0.80;;;9.70;99.90;;;;;;4994105;28;20046;-65
2023/03/25 04:01:52;;;;;;;5.50;1.75;;;9.60;99.90;;;;;;5011050;28;20069;-65
2023/03/25 04:04:21;;;;;;;0.10;0.10;;;9.60;99.90;;;;;;4998044;28;20065;-65
2023/03/25 04:06:55;;;;;;;3.97;1.98;;;9.60;99.90;;;;;;5011944;28;20053;-65
2023/03/25 04:10:01;;;;;;;1.20;0.85;;;9.60;99.90;;;;;;4997193;28;20437;-65
2023/03/25 04:12:34;;;;;;;0.45;0.45;;;9.70;99.90;;;;;;4997162;28;20050;-65
2023/03/25 04:15:02;;;;;;;23.08;0.95;;;9.60;99.90;;;;;;4999922;28;20046;-65
2023/03/25 04:17:28;;;;;;;0.63;0.63;;;9.60;99.90;;;;;;5003912;28;20042;-65
2023/03/25 04:19:55;;;;;;;0.10;0.10;;;9.60;99.90;;;;;;5004806;28;20041;-65
2023/03/25 04:22:21;;;;;;;1.85;1.75;;;9.60;99.90;;;;;;5012250;28;20052;-65
2023/03/25 04:24:48;;;;;;;1.52;1.42;;;9.60;99.90;;;;;;5013616;28;20054;-65
2023/03/25 04:27:18;;;;;;;11.40;2.30;;;9.60;99.90;;;;;;5003313;28;20038;-65
2023/03/25 04:29:46;;;;;;;1.58;1.48;;;9.60;99.90;;;;;;5005297;28;20180;-65
2023/03/25 04:32:12;;;;;;;2.17;2.08;;;9.70;99.90;;;;;;5013062;28;20038;-65
2023/03/25 04:34:38;;;;;;;2.08;1.08;;;9.70;99.90;;;;;;5007679;28;20046;-65
2023/03/25 04:37:04;;;;;;;0.20;0.20;;;9.60;99.90;;;;;;4996371;28;20050;-65
2023/03/25 04:39:31;;;;;;;3.92;3.60;;;9.60;99.90;;;;;;5008594;28;20034;-64
2023/03/25 04:42:01;;;;;;;2.28;1.25;;;9.50;99.90;;;;;;5001771;28;20547;-65
2023/03/25 04:44:28;;;;;;;0.10;0.10;;;9.50;99.90;;;;;;5001726;28;20060;-65
2023/03/25 04:46:55;;;;;;;0.28;0.28;;;9.50;99.90;;;;;;5012430;28;20049;-65
2023/03/25 04:49:22;;;;;;;0.00;0.00;;;9.50;99.90;;;;;;5010750;28;20045;-65
2023/03/25 04:51:50;;;;;;;8.52;0.75;;;9.40;99.90;;;;;;5005223;28;20130;-64
2023/03/25 04:54:17;;;;;;;0.03;0.03;;;9.40;99.90;;;;;;5003216;28;20049;-65
2023/03/25 04:56:42;;;;;;;0.22;0.22;;;9.30;99.90;;;;;;5008377;28;20046;-65
2023/03/25 04:59:09;;;;;;;1.55;1.33;;;9.40;99.90;;;;;;5009730;28;20049;-65
2023/03/25 05:01:36;;;;;;;7.63;2.58;;;9.40;99.90;;;;;;5001725;28;20493;-64
2023/03/25 05:04:04;;;;;;;5.28;1.30;;;9.30;99.90;;;;;;5011831;28;20112;-65
2023/03/25 05:06:34;;;;;;;0.10;0.10;;;9.30;99.90;;;;;;5004942;28;20038;-65
2023/03/25 05:09:00;;;;;;;0.10;0.10;;;9.30;99.90;;;;;;5003173;28;20056;-65
2023/03/25 05:11:27;;;;;;;0.30;0.30;;;9.30;99.90;;;;;;5010786;28;20041;-65
2023/03/25 05:13:54;;;;;;;0.00;0.00;;;9.30;99.90;;;;;;5008182;28;20520;-65
2023/03/25 05:16:19;;;;;;;1.10;1.08;;;9.30;99.90;;;;;;5000526;28;20077;-65
2023/03/25 05:18:45;;;;;;;2.67;0.98;;;9.30;99.90;;;;;;5010939;28;20089;-65
2023/03/25 05:21:11;;;;;;;0.88;0.80;;;9.30;99.90;;;;;;5006983;28;20492;-65
2023/03/25 05:23:37;;;;;;;0.73;0.73;;;9.30;99.90;;;;;;4995984;28;20125;-65
2023/03/25 05:26:03;;;;;;;0.65;0.65;;;9.30;99.90;;;;;;5009370;28;20125;-65
2023/03/25 05:28:29;;;;;;;0.10;0.10;;;9.40;99.90;;;;;;5011468;28;20042;-65
2023/03/25 05:30:55;;;;;;;0.10;0.10;;;9.40;99.90;;;;;;4995719;28;20811;-65
2023/03/25 05:33:21;;;;;;;2.75;1.77;;;9.30;99.90;;;;;;5003654;28;20038;-65
2023/03/25 05:35:46;;;;;;;0.20;0.20;;;9.40;99.90;;;;;;4998852;28;20040;-65
2023/03/25 05:38:17;;;;;;;0.15;0.15;;;9.40;99.90;;;;;;5003226;28;20474;-65
2023/03/25 05:40:47;;;;;;;0.70;0.70;;;9.40;99.90;;;;;;5010347;28;20084;-65
2023/03/25 05:43:14;;;;;;;0.00;0.00;;;9.40;99.90;;;;;;4998357;28;20050;-65
2023/03/25 05:45:40;;;;;;;0.20;0.20;;;9.40;99.90;;;;;;5001356;28;20062;-64
2023/03/25 05:48:07;;;;;;;2.28;2.10;;;9.40;99.90;;;;;;5000618;28;20046;-64
2023/03/25 05:50:33;;;;;;;0.73;0.73;;;9.40;99.90;;;;;;5001452;28;20092;-65
2023/03/25 05:52:59;;;;;;;0.20;0.20;;;9.40;99.90;;;;;;4996749;28;20042;-65
2023/03/25 05:55:25;;;;;;;0.50;0.50;;;9.40;99.90;;;;;;5007238;28;20049;-65
2023/03/25 05:57:51;;;;;;;0.40;0.40;;;9.40;99.90;;;;;;5010193;28;20038;-64
2023/03/25 06:00:20;;;;;;;0.10;0.10;;;9.40;99.90;;;;;;5003186;28;20042;-65
2023/03/25 06:02:47;;;;;;;1.00;0.90;;;9.40;99.90;;;;;;5004844;28;20092;-65
2023/03/25 06:05:13;;;;;;;0.25;0.25;;;9.40;99.90;;;;;;5006491;28;20072;-65
2023/03/25 06:07:41;;;;;;;0.63;0.63;;;9.40;99.90;;;;;;5003698;28;20696;-64
2023/03/25 06:10:11;;;;;;;0.47;0.47;;;9.40;99.90;;;;;;5004797;28;20041;-65
2023/03/25 06:12:38;;;;;;;0.30;0.30;;;9.40;99.90;;;;;;4997624;28;20540;-64
2023/03/25 06:15:08;;;;;;;0.20;0.20;;;9.40;99.90;;;;;;5001674;28;20489;-65
2023/03/25 06:17:37;;;;;;;0.40;0.40;;;9.40;99.90;;;;;;5005102;28;20038;-65
2023/03/25 06:20:09;;;;;;;0.50;0.50;;;9.40;99.90;;;;;;5005689;28;20056;-65
2023/03/25 06:22:44;;;;;;;0.10;0.10;;;9.50;99.90;;;;;;5006211;28;20034;-65
2023/03/25 06:25:18;;;;;;;0.10;0.10;;;9.50;99.90;;;;;;5007457;28;20081;-65
2023/03/25 06:27:48;;;;;;;1.52;1.42;;;9.50;99.90;;;;;;5002732;28;20034;-65
2023/03/25 06:30:17;;;;;;;0.57;0.57;;;9.50;99.90;;;;;;4993652;28;20081;-65
2023/03/25 06:32:42;;;;;;;0.00;0.00;;;9.50;99.90;;;;;;5009667;28;20042;-65
2023/03/25 06:35:10;;;;;;;0.10;0.10;;;9.50;99.90;;;;;;5004114;28;20562;-65
2023/03/25 06:37:37;;;;;;;0.10;0.10;;;9.50;99.90;;;;;;4998165;28;20041;-65
2023/03/25 06:40:05;;;;;;;0.00;0.00;;;9.50;99.90;;;;;;4997907;28;20053;-65
2023/03/25 06:42:31;;;;;;;0.10;0.10;;;9.50;99.90;;;;;;4999830;28;20501;-64
2023/03/25 06:44:57;;;;;;;0.10;0.10;;;9.50;99.90;;;;;;5009912;28;20062;-64
2023/03/25 06:47:22;;;;;;;0.08;0.08;;;9.40;99.90;;;;;;5002679;28;20049;-65
2023/03/25 06:49:48;;;;;;;0.77;0.47;;;9.30;99.90;;;;;;5004469;28;20048;-65
2023/03/25 06:52:14;;;;;;;2.05;1.85;;;9.30;99.90;;;;;;5006645;28;20126;-65
2023/03/25 06:54:40;;;;;;;0.08;0.08;;;9.30;99.90;;;;;;4997479;28;20046;-65
2023/03/25 06:57:06;;;;;;;0.25;0.25;;;9.40;99.90;;;;;;5007998;28;20390;-65
2023/03/25 06:59:32;;;;;;;0.43;0.43;;;9.40;99.90;;;;;;5009424;28;20045;-65
2023/03/25 07:01:58;;;;;;;0.63;0.57;;;9.40;99.90;;;;;;5000091;28;20041;-65
2023/03/25 07:04:23;;;;;;;1.45;0.80;;;9.50;99.90;;;;;;5007978;28;20184;-65
2023/03/25 07:06:49;;;;;;;1.05;1.02;;;9.50;99.90;;;;;;5008801;28;20029;-65
2023/03/25 07:09:15;;;;;;;0.10;0.10;;;9.50;99.90;;;;;;4992645;28;20043;-65
2023/03/25 07:11:41;;;;;;;0.10;0.10;;;9.50;99.90;;;;;;5005402;28;20045;-65
2023/03/25 07:14:07;;;;;;;1.02;0.95;;;9.60;99.90;;;;;;5009884;28;20076;-65
2023/03/25 07:16:32;;;;;;;0.00;0.00;;;9.60;99.90;;;;;;5003627;28;20065;-65
2023/03/25 07:18:58;;;;;;;0.70;0.70;;;9.50;99.90;;;;;;5002907;28;20096;-65
2023/03/25 07:21:24;;;;;;;0.10;0.10;;;9.40;99.90;;;;;;5010001;28;20042;-67
2023/03/25 07:23:50;;;;;;;0.50;0.50;;;9.20;99.90;;;;;;5004656;28;20048;-68
2023/03/25 07:26:17;;;;;;;0.28;0.28;;;9.10;99.90;;;;;;5006110;28;20068;-66
2023/03/25 07:28:43;;;;;;;0.10;0.10;;;9.00;99.90;;;;;;5010519;28;20500;-66
2023/03/25 07:31:11;;;;;;;0.08;0.08;;;9.00;99.90;;;;;;5000345;28;20042;-67
2023/03/25 07:33:37;;;;;;;5.38;0.85;;;9.00;99.90;;;;;;5006785;28;20148;-67
2023/03/25 07:36:05;;;;;;;0.47;0.47;;;9.00;99.90;;;;;;5007441;28;20033;-67
2023/03/25 07:38:31;;;;;;;0.10;0.10;;;8.90;99.90;;;;;;4993403;28;20050;-67
2023/03/25 07:40:57;;;;;;;0.10;0.10;;;8.90;99.90;;;;;;5008485;28;20056;-67
2023/03/25 07:43:22;;;;;;;0.10;0.10;;;8.90;99.90;;;;;;4991241;28;20038;-67
2023/03/25 07:45:49;;;;;;;0.10;0.10;;;8.90;99.90;;;;;;5007525;28;20085;-68
2023/03/25 07:48:15;;;;;;;0.55;0.55;;;8.90;99.90;;;;;;5010847;28;20079;-68
2023/03/25 07:50:42;;;;;;;0.08;0.08;;;8.90;99.90;;;;;;5002649;28;20046;-67
2023/03/25 07:53:09;;;;;;;0.70;0.70;;;8.90;99.90;;;;;;4994856;28;20050;-67
2023/03/25 07:55:35;;;;;;;4.90;2.28;;;8.90;99.90;;;;;;5010083;28;20049;-67
2023/03/25 07:58:01;;;;;;;3.33;3.13;;;8.90;99.90;;;;;;5006911;28;20401;-67
2023/03/25 08:00:28;;;;;;;0.73;0.73;;;9.00;99.90;;;;;;4999244;28;20089;-67
2023/03/25 08:02:54;;;;;;;0.13;0.13;;;9.00;99.90;;;;;;5002533;28;20034;-67
2023/03/25 08:05:20;;;;;;;0.20;0.20;;;9.10;99.90;;;;;;5004080;28;20057;-65
2023/03/25 08:07:50;;;;;;;0.98;0.98;;;9.20;99.90;;;;;;5000203;28;20478;-66
2023/03/25 08:10:16;;;;;;;0.73;0.73;;;9.20;99.90;;;;;;5003419;28;20053;-65
2023/03/25 08:12:43;;;;;;;1.27;0.80;;;9.30;99.90;;;;;;5001660;28;20080;-66
2023/03/25 08:15:10;;;;;;;0.20;0.20;;;9.30;99.90;;;;;;5002597;28;20463;-65
2023/03/25 08:17:37;;;;;;;0.10;0.10;;;9.30;99.90;;;;;;5004982;28;20953;-66
2023/03/25 08:20:04;;;;;;;1.10;1.10;;;9.50;99.90;;;;;;5000003;28;20459;-66
2023/03/25 08:22:31;;;;;;;0.10;0.10;;;9.60;99.90;;;;;;5005019;28;20065;-65
2023/03/25 08:24:57;;;;;;;1.17;1.00;;;9.80;99.90;;;;;;5008961;28;20263;-65
2023/03/25 08:27:23;;;;;;;0.10;0.10;;;10.10;99.90;;;;;;5006791;28;20069;-65
2023/03/25 08:29:53;;;;;;;0.10;0.10;;;10.20;99.90;;;;;;5002922;28;20096;-66
2023/03/25 08:32:20;;;;;;;1.95;1.65;;;10.10;99.90;;;;;;5004696;28;20413;-65
2023/03/25 08:34:46;;;;;;;0.20;0.20;;;10.10;99.90;;;;;;4999620;28;20056;-65
2023/03/25 08:37:14;;;;;;;0.10;0.10;;;10.00;99.90;;;;;;5008828;28;20042;-65
2023/03/25 08:39:40;;;;;;;0.63;0.63;;;10.00;99.90;;;;;;4998258;28;20529;-65
2023/03/25 08:42:10;;;;;;;0.17;0.17;;;10.00;99.90;;;;;;5008146;28;20041;-65
2023/03/25 08:44:36;;;;;;;0.00;0.00;;;10.10;99.90;;;;;;5012744;28;20049;-65
2023/03/25 08:47:01;;;;;;;0.10;0.10;;;10.10;99.90;;;;;;5003852;28;20499;-65
2023/03/25 08:49:27;;;;;;;1.63;1.17;;;10.20;99.90;;;;;;5005135;28;20033;-65
2023/03/25 08:51:53;;;;;;;0.10;0.10;;;10.20;99.90;;;;;;5007603;28;20053;-65
2023/03/25 08:54:18;;;;;;;0.10;0.10;;;10.30;99.90;;;;;;5004051;28;20382;-65
2023/03/25 08:56:44;;;;;;;0.30;0.30;;;10.40;99.90;;;;;;4997909;28;20046;-65
2023/03/25 08:59:11;;;;;;;0.10;0.10;;;10.40;99.90;;;;;;5002406;28;20129;-65
2023/03/25 09:01:37;;;;;;;0.88;0.82;;;10.30;99.90;;;;;;4997506;28;20124;-65
2023/03/25 09:04:03;;;;;;;0.65;0.65;;;10.30;99.90;;;;;;5002487;28;20138;-65
2023/03/25 09:06:28;;;;;;;0.73;0.73;;;10.30;99.90;;;;;;5007989;28;20159;-64
2023/03/25 09:08:54;;;;;;;0.28;0.28;;;10.30;99.90;;;;;;4993945;28;20050;-64
2023/03/25 09:11:21;;;;;;;0.10;0.10;;;10.20;99.90;;;;;;4995759;28;20049;-65
2023/03/25 09:13:46;;;;;;;0.32;0.32;;;10.20;99.90;;;;;;5004833;28;20378;-65
2023/03/25 09:16:12;;;;;;;0.10;0.10;;;10.10;99.90;;;;;;5005134;28;20034;-65
2023/03/25 09:18:38;;;;;;;0.10;0.10;;;10.10;99.90;;;;;;5001666;28;20050;-64
2023/03/25 09:21:04;;;;;;;0.57;0.57;;;10.10;99.90;;;;;;5012244;28;20040;-64
2023/03/25 09:23:30;;;;;;;11.55;2.17;;;10.10;99.90;;;;;;4995767;28;20181;-64
2023/03/25 09:26:00;;;;;;;0.38;0.38;;;10.10;99.90;;;;;;5007753;28;20046;-65
2023/03/25 09:28:27;;;;;;;0.00;0.00;;;10.10;99.90;;;;;;5006522;28;20140;-65
2023/03/25 09:30:54;;;;;;;0.32;0.32;;;10.10;99.90;;;;;;5001499;28;20057;-64
2023/03/25 09:33:20;;;;;;;9.95;1.42;;;10.20;99.90;;;;;;5005413;28;20081;-65
2023/03/25 09:35:46;;;;;;;1.10;1.02;;;10.20;99.90;;;;;;5007495;28;20037;-65
2023/03/25 09:38:12;;;;;;;0.10;0.10;;;10.20;99.90;;;;;;5001471;28;20039;-64
2023/03/25 09:40:41;;;;;;;0.15;0.15;;;10.20;99.90;;;;;;4975567;28;20057;-64
2023/03/25 09:43:31;;;;;;;3.20;1.75;;;10.30;99.90;;;;;;4998079;28;20054;-64
2023/03/25 09:45:57;;;;;;;0.10;0.10;;;10.30;99.90;;;;;;4997442;28;20163;-64
2023/03/25 09:48:26;;;;;;;1.85;1.10;;;10.40;99.90;;;;;;5003626;28;20038;-65
2023/03/25 09:50:52;;;;;;;0.10;0.10;;;10.40;99.90;;;;;;5004340;28;20049;-65
2023/03/25 09:53:48;;;;;;;0.15;0.15;;;10.40;99.90;;;;;;5011487;28;20393;-65
2023/03/25 09:56:18;;;;;;;16.77;2.75;;;10.40;99.90;;;;;;4999354;28;20050;-65
2023/03/25 09:58:44;;;;;;;0.10;0.10;;;10.40;99.90;;;;;;4995377;28;20417;-65
2023/03/25 10:01:17;;;;;;;0.68;0.68;;;10.50;99.90;;;;;;5007078;28;20041;-65
2023/03/25 10:04:07;;;;;;;2.58;2.30;;;10.60;99.90;;;;;;5010613;28;20046;-64
2023/03/25 10:06:46;;;;;;;1.92;1.15;;;10.70;99.90;;;;;;5005004;28;20122;-65
2023/03/25 10:09:39;;;;;;;0.10;0.10;;;10.70;99.90;;;;;;5003127;28;20045;-65
2023/03/25 10:12:28;;;;;;;0.33;0.33;;;10.80;99.90;;;;;;4994968;28;20073;-65
2023/03/25 10:15:16;;;;;;;0.32;0.32;;;10.90;99.90;;;;;;5008719;28;20045;-65
2023/03/25 10:17:50;;;;;;;0.75;0.75;;;11.00;99.90;;;;;;5010664;28;20070;-64
2023/03/25 10:20:39;;;;;;;0.30;0.30;;;11.00;99.90;;;;;;5007629;28;20034;-64
2023/03/25 10:23:29;;;;;;;0.10;0.10;;;11.10;99.90;;;;;;5001656;28;20061;-64
2023/03/25 10:26:08;;;;;;;0.10;0.10;;;11.20;99.90;;;;;;5003925;28;20056;-65
2023/03/25 10:28:38;;;;;;;0.20;0.20;;;11.50;99.90;;;;;;4998151;28;20065;-65
2023/03/25 10:31:06;;;;;;;1.20;1.10;;;11.60;99.90;;;;;;5002215;28;20034;-65
2023/03/25 10:33:38;;;;;;;1.00;0.95;;;11.60;99.90;;;;;;5005883;28;20100;-64
2023/03/25 10:36:11;;;;;;;0.10;0.10;;;11.60;99.90;;;;;;5006490;28;20113;-64
2023/03/25 10:38:37;;;;;;;0.10;0.10;;;11.60;99.90;;;;;;5005601;28;20533;-64
2023/03/25 10:41:26;;;;;;;0.10;0.10;;;11.70;99.90;;;;;;5010379;28;20037;-65
2023/03/25 10:43:52;;;;;;;2.40;2.20;;;11.90;99.90;;;;;;5001157;28;20084;-64
2023/03/25 10:46:47;;;;;;;0.70;0.65;;;12.10;99.90;;;;;;5004822;28;20050;-64
2023/03/25 10:49:17;;;;;;;1.98;1.38;;;11.80;99.90;;;;;;5001256;28;20042;-65
2023/03/25 10:51:44;;;;;;;0.10;0.10;;;11.70;99.90;;;;;;4993615;28;20050;-64
2023/03/25 10:54:12;;;;;;;0.00;0.00;;;11.90;99.90;;;;;;5001948;28;20430;-65
2023/03/25 10:56:48;;;;;;;0.50;0.50;;;12.00;99.90;;;;;;5010366;28;20050;-64
2023/03/25 10:59:23;;;;;;;0.10;0.10;;;12.00;99.90;;;;;;5000521;28;20498;-64
2023/03/25 11:01:50;;;;;;;0.10;0.10;;;11.90;99.90;;;;;;5000445;28;20120;-65
2023/03/25 11:04:19;;;;;;;7.43;0.28;;;11.80;99.90;;;;;;5004905;28;20092;-65
2023/03/25 11:06:56;;;;;;;0.30;0.30;;;11.80;99.90;;;;;;5005811;28;20050;-65
2023/03/25 11:09:29;;;;;;;9.63;2.40;;;12.00;99.90;;;;;;5004970;28;20060;-65
2023/03/25 11:11:58;;;;;;;0.10;0.10;;;11.90;99.90;;;;;;4996489;28;20129;-65
2023/03/25 11:14:26;;;;;;;0.32;0.32;;;12.20;99.90;;;;;;5003078;28;20129;-65
2023/03/25 11:17:08;;;;;;;0.17;0.17;;;12.30;99.90;;;;;;4997982;28;20502;-65
2023/03/25 11:19:51;;;;;;;0.00;0.00;;;12.10;99.90;;;;;;5006910;28;20159;-65
2023/03/25 11:22:18;;;;;;;;;;;12.10;99.90;;;;;;5009236;28;20050;-65
2023/03/25 11:24:48;;;;;;;0.20;0.20;;;12.00;99.90;;;;;;4997685;28;19975;-65
2023/03/25 11:27:23;;;;;;;0.00;0.00;;;12.10;99.90;;;;;;4994172;28;20051;-65
2023/03/25 11:29:56;;;;;;;1.50;1.40;;;12.10;99.90;;;;;;5009773;28;20057;-65
2023/03/25 11:32:36;;;;;;;0.20;0.20;;;12.20;99.90;;;;;;5009334;28;20065;-65
2023/03/25 11:35:13;;;;;;;0.10;0.10;;;12.10;99.90;;;;;;5005760;28;20133;-65
2023/03/25 11:37:47;;;;;;;4.65;3.03;;;12.00;99.90;;;;;;4990817;28;20507;-65
2023/03/25 11:40:16;;;;;;;0.22;0.22;;;12.10;99.90;;;;;;4997475;28;20050;-65
2023/03/25 11:42:50;;;;;;;3.70;2.38;;;12.10;99.90;;;;;;5004563;28;20116;-65
2023/03/25 11:45:21;;;;;;;0.00;0.00;;;12.20;99.90;;;;;;4995747;28;20054;-65
2023/03/25 11:47:48;;;;;;;2.67;1.80;;;12.10;99.90;;;;;;5009430;28;20100;-65
2023/03/25 11:50:23;;;;;;;0.00;0.00;;;12.00;99.90;;;;;;5002925;28;20513;-65
2023/03/25 11:52:54;;;;;;;1.10;0.75;;;11.90;99.90;;;;;;4989989;28;20051;-65
2023/03/25 11:55:26;;;;;;;4.97;1.90;;;11.90;99.90;;;;;;4997396;28;20052;-65
2023/03/25 11:57:55;;;;;;;5.93;2.05;;;12.00;99.90;;;;;;4996855;28;20413;-65
2023/03/25 12:00:24;;;;;;;22.02;3.05;;;12.00;99.90;;;;;;5004368;28;20469;-64
2023/03/25 12:03:02;;;;;;;0.20;0.20;;;12.00;99.90;;;;;;5008693;28;20041;-66
2023/03/25 12:05:29;;;;;;;0.10;0.10;;;11.90;99.90;;;;;;5003440;28;20042;-66
2023/03/25 12:08:03;;;;;;;0.75;0.75;;;12.00;99.90;;;;;;4998905;28;20478;-66
2023/03/25 12:11:06;;;;;;;0.10;0.10;;;11.80;99.90;;;;;;5000242;28;20052;-66
2023/03/25 12:13:44;;;;;;;0.25;0.25;;;11.70;99.90;;;;;;4995918;28;20457;-66
2023/03/25 12:16:18;;;;;;;0.10;0.10;;;11.60;99.90;;;;;;5008171;28;20046;-66
2023/03/25 12:18:53;;;;;;;0.10;0.10;;;11.50;99.90;;;;;;5003987;28;20045;-66
2023/03/25 12:21:37;;;;;;;0.65;0.60;;;11.50;99.90;;;;;;5008533;28;20177;-66
2023/03/25 12:24:31;;;;;;;0.35;0.35;;;11.50;99.90;;;;;;5002564;28;20053;-66
2023/03/25 12:27:28;;;;;;;0.63;0.63;;;11.40;99.90;;;;;;4992793;28;20518;-66
2023/03/25 12:30:17;;;;;;;0.10;0.10;;;11.40;99.90;;;;;;5007075;28;20049;-66
2023/03/25 12:33:30;;;;;;;0.80;0.80;;;11.20;99.90;;;;;;4998209;28;20445;-66
2023/03/25 12:36:11;;;;;;;0.10;0.10;;;11.10;99.90;;;;;;4998446;28;20042;-65
2023/03/25 12:38:39;;;;;;;0.10;0.10;;;11.00;99.90;;;;;;5002304;28;20050;-65
2023/03/25 12:41:34;;;;;;;0.10;0.10;;;10.90;99.90;;;;;;5004673;28;20061;-65
2023/03/25 12:44:08;;;;;;;3.42;1.10;;;10.90;99.90;;;;;;5006582;28;20041;-65
2023/03/25 12:46:44;;;;;;;0.00;0.00;;;10.70;99.90;;;;;;5010257;28;20042;-66
2023/03/25 12:49:25;;;;;;;0.10;0.10;;;10.60;99.90;;;;;;5010812;28;20081;-66
2023/03/25 12:52:06;;;;;;;0.10;0.10;;;10.50;99.90;;;;;;5000568;28;20052;-66
2023/03/25 12:55:06;;;;;;;0.10;0.10;;;10.50;99.90;;;;;;5003696;28;20052;-66
2023/03/25 12:57:40;;;;;;;0.55;0.55;;;10.50;99.90;;;;;;4982282;28;20046;-66
2023/03/25 13:00:17;;;;;;;0.20;0.20;;;10.50;99.90;;;;;;5009730;28;20125;-66
2023/03/25 13:03:02;;;;;;;0.10;0.10;;;10.50;99.90;;;;;;5000794;28;20125;-66
2023/03/25 13:05:50;;;;;;;2.10;1.35;;;10.40;99.90;;;;;;5005023;28;20052;-66
2023/03/25 13:08:23;;;;;;;0.65;0.65;;;10.30;99.90;;;;;;5011036;28;20042;-67
2023/03/25 13:10:57;;;;;;;0.20;0.20;;;10.40;99.90;;;;;;5004298;28;20050;-67
2023/03/25 13:13:25;;;;;;;0.10;0.10;;;10.60;99.90;;;;;;5004568;28;20121;-67
2023/03/25 13:16:14;;;;;;;5.18;0.68;;;10.70;99.90;;;;;;5003358;28;20050;-66